Owenton, Kentucky
Current Conditions -  °F | °C
As of 12:53 AM on Thursday 27 Nov 2014 (Local Time) from KFFT Reporting Station
Overcast Overcast  
Wind Chill: 34°   Ceiling: 11000
Heat Index: 34°   Visibility: 10mi
Dew Point: 28°   Wind: 3mph
Humidity: 79%   Direction: 10°N
Pressure: 30.02"   Gusts: NA
Location:  38.54°N, 84.84°W
Report Text: KFFT 270553Z AUTO 01003KT 10SM OVC110 01/M02 A3002 RMK AO2 SLP170 T00111022 10022 20006 58003
Loading
Personal Weather Stations






























Interactive Weather Map New forecast layout! Learn more

10-Day Weather Forecast

Advertisements
Track Severe Weather on mobile